createdAt,value
2022-08-08T00:02:32.954Z,95487.22
2022-08-08T00:05:09.384Z,95481.69
2022-08-08T00:07:43.853Z,95490.94
2022-08-08T00:10:28.144Z,95494.97
2022-08-08T00:14:15.000Z,95484.44
2022-08-08T00:16:13.059Z,95484.09
2022-08-08T00:18:53.245Z,95491.72
2022-08-08T00:21:29.626Z,95488.81
2022-08-08T00:24:24.029Z,95488.63
2022-08-08T00:27:01.366Z,95496.41
2022-08-08T00:29:45.222Z,95494.78
2022-08-08T00:32:36.390Z,95496.41
2022-08-08T00:35:20.065Z,95493.81
2022-08-08T00:38:02.348Z,95488.94
2022-08-08T00:41:07.833Z,95485.38
2022-08-08T00:43:41.086Z,95483.44
2022-08-08T00:46:56.036Z,95489.28
2022-08-08T00:49:50.619Z,95484.75
2022-08-08T00:53:01.934Z,95482.44
2022-08-08T00:56:05.385Z,95485.88
2022-08-08T00:59:43.870Z,95482.28
2022-08-08T01:03:58.498Z,95481.00
2022-08-08T01:06:00.734Z,95484.59
2022-08-08T01:08:57.293Z,95485.69
2022-08-08T01:11:48.301Z,95487.34
2022-08-08T01:14:54.572Z,95491.22
2022-08-08T01:18:16.291Z,95488.09
2022-08-08T01:21:07.304Z,95487.25
2022-08-08T01:24:16.522Z,95484.84
2022-08-08T01:27:02.871Z,95482.72
2022-08-08T01:30:05.936Z,95491.97
2022-08-08T01:32:44.796Z,95485.50
2022-08-08T01:35:33.253Z,95482.41
2022-08-08T01:38:11.510Z,95485.47
2022-08-08T01:41:15.928Z,95491.78
2022-08-08T01:44:02.342Z,95499.69
2022-08-08T01:46:52.193Z,95490.75
2022-08-08T01:49:37.921Z,95489.59
2022-08-08T01:52:43.929Z,95493.66
2022-08-08T01:56:29.129Z,95487.50
2022-08-08T01:58:39.602Z,95497.03
2022-08-08T02:02:00.560Z,95495.41
2022-08-08T02:05:01.390Z,95489.59
2022-08-08T02:08:04.994Z,95491.91
2022-08-08T02:11:03.300Z,95492.19
2022-08-08T02:13:54.850Z,95492.84
2022-08-08T02:16:42.886Z,95496.09
2022-08-08T02:19:41.571Z,95494.34
2022-08-08T02:22:28.278Z,95492.41
2022-08-08T02:25:43.507Z,95495.94
2022-08-08T02:28:34.893Z,95492.41
2022-08-08T02:31:59.259Z,95500.66
2022-08-08T02:34:27.626Z,95493.38
2022-08-08T02:37:52.306Z,95505.50
2022-08-08T02:41:00.126Z,95510.19
2022-08-08T02:44:42.464Z,95514.91
2022-08-08T02:46:47.456Z,95509.94
2022-08-08T02:49:38.125Z,95514.63
2022-08-08T02:52:38.472Z,95514.47
2022-08-08T02:55:57.818Z,95510.09
2022-08-08T02:59:05.972Z,95507.34
2022-08-08T03:02:20.610Z,95514.16
2022-08-08T03:05:10.630Z,95511.75
2022-08-08T03:08:06.145Z,95515.44
2022-08-08T03:10:44.275Z,95518.34
2022-08-08T03:15:58.740Z,95516.88
2022-08-08T03:17:20.135Z,95511.88
2022-08-08T03:20:08.151Z,95509.41
2022-08-08T03:22:56.092Z,95511.34
2022-08-08T03:25:34.080Z,95507.28
2022-08-08T03:28:10.217Z,95508.25
2022-08-08T03:30:44.110Z,95499.81
2022-08-08T03:33:58.850Z,95504.97
2022-08-08T03:36:09.366Z,95505.28
2022-08-08T03:38:54.041Z,95502.31
2022-08-08T03:42:27.691Z,95497.28
2022-08-08T03:44:31.475Z,95502.91
2022-08-08T03:47:14.194Z,95506.63
2022-08-08T03:49:57.709Z,95509.53
2022-08-08T03:52:32.048Z,95518.19
2022-08-08T03:55:09.522Z,95517.09
2022-08-08T03:58:30.074Z,95515.44
2022-08-08T04:00:30.537Z,95513.72
2022-08-08T04:03:11.645Z,95519.88
2022-08-08T04:05:49.631Z,95516.47
2022-08-08T04:08:32.467Z,95516.03
2022-08-08T04:11:11.429Z,95506.28
2022-08-08T04:14:03.782Z,95512.28
2022-08-08T04:16:38.996Z,95516.03
2022-08-08T04:19:23.379Z,95520.31
2022-08-08T04:21:54.221Z,95522.25
2022-08-08T04:24:29.346Z,95522.91
2022-08-08T04:26:59.544Z,95528.56
2022-08-08T04:29:37.151Z,95532.25
2022-08-08T04:32:08.196Z,95534.00
2022-08-08T04:34:42.800Z,95540.16
2022-08-08T04:37:16.634Z,95537.59
2022-08-08T04:40:03.601Z,95544.03
2022-08-08T04:42:34.135Z,95546.28
2022-08-08T04:45:05.360Z,95554.72
2022-08-08T04:47:43.222Z,95559.47
2022-08-08T04:50:24.439Z,95559.97
2022-08-08T04:52:58.741Z,95566.66
2022-08-08T04:55:47.391Z,95561.00
2022-08-08T04:58:20.224Z,95564.25
2022-08-08T05:00:50.151Z,95563.97
2022-08-08T05:04:10.825Z,95567.06
2022-08-08T05:06:13.220Z,95565.81
2022-08-08T05:08:43.153Z,95574.44
2022-08-08T05:11:18.746Z,95572.75
2022-08-08T05:13:57.686Z,95572.03
2022-08-08T05:16:54.999Z,95574.59
2022-08-08T05:20:08.911Z,95576.69
2022-08-08T05:22:08.407Z,95568.69
2022-08-08T05:24:38.584Z,95579.09
2022-08-08T05:27:06.686Z,95580.13
2022-08-08T05:29:36.793Z,95583.28
2022-08-08T05:32:08.226Z,95580.72
2022-08-08T05:34:47.701Z,95587.69
2022-08-08T05:37:53.339Z,95579.97
2022-08-08T05:40:17.697Z,95590.06
2022-08-08T05:42:52.709Z,95588.91
2022-08-08T05:45:30.551Z,95585.16
2022-08-08T05:48:08.763Z,95586.16
2022-08-08T05:50:38.577Z,95584.31
2022-08-08T05:53:53.775Z,95582.47
2022-08-08T05:56:10.228Z,95587.03
2022-08-08T05:58:57.929Z,95597.75
2022-08-08T06:01:55.398Z,95592.97
2022-08-08T06:04:25.335Z,95593.53
2022-08-08T06:07:00.230Z,95593.97
2022-08-08T06:10:00.666Z,95597.47
2022-08-08T06:12:30.304Z,95590.03
2022-08-08T06:15:03.686Z,95603.00
2022-08-08T06:17:50.949Z,95595.53
2022-08-08T06:20:25.898Z,95596.63
2022-08-08T06:22:56.277Z,95596.59
2022-08-08T06:26:34.952Z,95592.50
2022-08-08T06:28:31.850Z,95608.44
2022-08-08T06:31:04.235Z,95598.19
2022-08-08T06:34:27.148Z,95611.13
2022-08-08T06:36:53.838Z,95607.38
2022-08-08T06:39:22.610Z,95618.97
2022-08-08T06:41:56.768Z,95615.91
2022-08-08T06:44:27.136Z,95615.16
2022-08-08T06:46:58.956Z,95618.31
2022-08-08T06:49:55.965Z,95622.88
2022-08-08T06:52:16.054Z,95625.38
2022-08-08T06:54:44.426Z,95622.97
2022-08-08T06:57:16.163Z,95623.72
2022-08-08T07:00:03.755Z,95627.25
2022-08-08T07:02:32.915Z,95629.97
2022-08-08T07:05:11.832Z,95624.63
2022-08-08T07:07:52.818Z,95623.94
2022-08-08T07:10:25.446Z,95630.50
2022-08-08T07:13:00.228Z,95626.59
2022-08-08T07:16:04.879Z,95635.31
2022-08-08T07:19:06.221Z,95624.69
2022-08-08T07:22:02.014Z,95628.59
2022-08-08T07:24:42.550Z,95628.22
2022-08-08T07:27:16.626Z,95632.31
2022-08-08T07:30:01.992Z,95632.72
2022-08-08T07:32:39.787Z,95637.94
2022-08-08T07:35:09.780Z,95632.72
2022-08-08T07:38:04.438Z,95637.97
2022-08-08T07:40:40.133Z,95635.94
2022-08-08T07:43:12.090Z,95648.09
2022-08-08T07:46:05.632Z,95640.59
2022-08-08T07:48:36.249Z,95643.00
2022-08-08T07:51:04.225Z,95640.97
2022-08-08T07:54:02.874Z,95641.81
2022-08-08T07:56:42.595Z,95645.44
2022-08-08T07:59:16.226Z,95650.09
2022-08-08T08:02:36.625Z,95653.72
2022-08-08T08:04:49.418Z,95656.09
2022-08-08T08:07:26.770Z,95659.78
2022-08-08T08:10:04.500Z,95658.78
2022-08-08T08:12:41.474Z,95662.97
2022-08-08T08:15:18.305Z,95662.59
2022-08-08T08:17:55.498Z,95662.56
2022-08-08T08:20:30.079Z,95669.25
2022-08-08T08:22:59.869Z,95666.19
2022-08-08T08:25:42.950Z,95665.50
2022-08-08T08:28:21.257Z,95670.97
2022-08-08T08:30:53.831Z,95665.66
2022-08-08T08:33:22.906Z,95658.41
2022-08-08T08:36:20.242Z,95666.44
2022-08-08T08:38:49.442Z,95663.53
2022-08-08T08:41:22.469Z,95662.38
2022-08-08T08:43:52.035Z,95666.59
2022-08-08T08:46:19.907Z,95661.25
2022-08-08T08:48:53.567Z,95666.78
2022-08-08T08:51:21.133Z,95669.44
2022-08-08T08:53:56.274Z,95677.09
2022-08-08T08:56:31.782Z,95673.94
2022-08-08T08:59:05.633Z,95676.78
2022-08-08T09:01:43.890Z,95673.56
2022-08-08T09:04:30.844Z,95670.53
2022-08-08T09:07:12.751Z,95680.00
2022-08-08T09:09:48.341Z,95675.22
2022-08-08T09:12:27.329Z,95673.63
2022-08-08T09:14:57.849Z,95666.91
2022-08-08T09:17:40.853Z,95668.47
2022-08-08T09:21:59.697Z,95667.03
2022-08-08T09:22:59.255Z,95680.81
2022-08-08T09:25:35.996Z,95673.97
2022-08-08T09:28:35.499Z,95671.78
2022-08-08T09:31:12.365Z,95666.50
2022-08-08T09:34:15.115Z,95677.09
2022-08-08T09:36:34.505Z,95680.06
2022-08-08T09:39:15.443Z,95669.31
2022-08-08T09:42:14.200Z,95671.50
2022-08-08T09:44:48.708Z,95670.63
2022-08-08T09:47:27.012Z,95664.94
2022-08-08T09:50:23.570Z,95667.00
2022-08-08T09:52:59.350Z,95661.50
2022-08-08T09:56:04.492Z,95663.66
2022-08-08T09:58:40.687Z,95667.16
2022-08-08T10:01:15.497Z,95668.38
2022-08-08T10:04:02.290Z,95664.25
2022-08-08T10:06:32.339Z,95663.47
2022-08-08T10:08:59.970Z,95656.03
2022-08-08T10:12:25.774Z,95653.06
2022-08-08T10:14:28.415Z,95654.69
2022-08-08T10:17:56.203Z,95652.09
2022-08-08T10:19:58.103Z,95654.34
2022-08-08T10:22:27.319Z,95655.06
2022-08-08T10:25:05.195Z,95648.78
2022-08-08T10:27:40.983Z,95647.38
2022-08-08T10:30:08.384Z,95644.59
2022-08-08T10:32:51.165Z,95641.63
2022-08-08T10:36:20.498Z,95646.03
2022-08-08T10:38:15.028Z,95644.78
2022-08-08T10:40:45.688Z,95645.88
2022-08-08T10:43:12.854Z,95636.06
2022-08-08T10:45:55.581Z,95647.16
2022-08-08T10:48:58.325Z,95654.25
2022-08-08T10:51:31.144Z,95653.81
2022-08-08T10:54:07.439Z,95643.84
2022-08-08T10:56:35.577Z,95639.22
2022-08-08T10:59:10.278Z,95635.63
2022-08-08T11:01:54.712Z,95640.78
2022-08-08T11:04:38.682Z,95640.19
2022-08-08T11:07:07.079Z,95642.19
2022-08-08T11:09:34.783Z,95644.47
2022-08-08T11:12:13.560Z,95642.63
2022-08-08T11:14:50.230Z,95638.22
2022-08-08T11:17:58.742Z,95632.03
2022-08-08T11:20:12.725Z,95634.06
2022-08-08T11:22:40.925Z,95633.75
2022-08-08T11:25:14.129Z,95633.81
2022-08-08T11:27:44.533Z,95633.84
2022-08-08T11:30:20.659Z,95635.63
2022-08-08T11:32:57.179Z,95636.47
2022-08-08T11:35:38.436Z,95635.00
2022-08-08T11:38:38.856Z,95639.78
2022-08-08T11:40:57.047Z,95633.78
2022-08-08T11:43:39.041Z,95633.34
2022-08-08T11:46:17.472Z,95623.00
2022-08-08T11:48:47.039Z,95628.50
2022-08-08T11:51:37.863Z,95624.69
2022-08-08T11:54:09.756Z,95621.13
2022-08-08T11:56:58.229Z,95619.25
2022-08-08T11:59:58.763Z,95617.25
2022-08-08T12:02:32.210Z,95615.13
2022-08-08T12:05:13.090Z,95611.13
2022-08-08T12:07:56.751Z,95608.97
2022-08-08T12:10:25.836Z,95611.41
2022-08-08T12:13:07.192Z,95612.88
2022-08-08T12:15:42.114Z,95613.88
2022-08-08T12:18:21.504Z,95613.47
2022-08-08T12:20:53.264Z,95610.88
2022-08-08T12:23:43.566Z,95609.09
2022-08-08T12:26:27.405Z,95600.66
2022-08-08T12:29:17.955Z,95603.59
2022-08-08T12:31:53.196Z,95603.41
2022-08-08T12:34:36.585Z,95605.25
2022-08-08T12:37:08.893Z,95602.81
2022-08-08T12:40:01.513Z,95603.34
2022-08-08T12:42:27.351Z,95606.00
2022-08-08T12:45:20.052Z,95601.28
2022-08-08T12:48:09.650Z,95598.44
2022-08-08T12:50:48.206Z,95593.72
2022-08-08T12:53:30.075Z,95591.69
2022-08-08T12:56:19.719Z,95597.72
2022-08-08T12:58:54.433Z,95587.28
2022-08-08T13:01:36.499Z,95590.16
2022-08-08T13:04:24.454Z,95589.59
2022-08-08T13:06:56.951Z,95590.06
2022-08-08T13:10:04.924Z,95589.88
2022-08-08T13:12:47.133Z,95590.41
2022-08-08T13:15:17.426Z,95583.38
2022-08-08T13:18:09.012Z,95587.69
2022-08-08T13:20:33.934Z,95581.31
2022-08-08T13:23:30.947Z,95586.47
2022-08-08T13:25:50.248Z,95593.00
2022-08-08T13:28:31.933Z,95580.44
2022-08-08T13:31:00.227Z,95578.72
2022-08-08T13:33:28.903Z,95579.13
2022-08-08T13:36:10.672Z,95566.00
2022-08-08T13:38:38.553Z,95564.00
2022-08-08T13:41:07.264Z,95568.94
2022-08-08T13:43:47.571Z,95572.81
2022-08-08T13:46:26.577Z,95573.31
2022-08-08T13:50:33.508Z,95569.34
2022-08-08T13:51:55.157Z,95571.28
2022-08-08T13:54:31.251Z,95572.84
2022-08-08T13:57:01.303Z,95565.59
2022-08-08T13:59:39.710Z,95574.00
2022-08-08T14:02:33.045Z,95565.34
2022-08-08T14:05:00.334Z,95558.00
2022-08-08T14:07:49.833Z,95564.47
2022-08-08T14:10:32.919Z,95563.28
2022-08-08T14:13:10.131Z,95563.81
2022-08-08T14:16:04.092Z,95564.75
2022-08-08T14:18:36.660Z,95564.72
2022-08-08T14:21:20.894Z,95556.38
2022-08-08T14:24:07.386Z,95566.38
2022-08-08T14:26:43.233Z,95566.44
2022-08-08T14:29:28.103Z,95560.50
2022-08-08T14:32:11.007Z,95559.09
2022-08-08T14:34:42.213Z,95559.56
2022-08-08T14:37:13.095Z,95555.78
2022-08-08T14:39:51.088Z,95567.94
2022-08-08T14:42:29.592Z,95562.38
2022-08-08T14:45:00.270Z,95550.31
2022-08-08T14:47:27.684Z,95562.88
2022-08-08T14:50:09.818Z,95565.13
2022-08-08T14:52:53.100Z,95561.22
2022-08-08T14:55:22.233Z,95562.31
2022-08-08T14:58:06.541Z,95556.22
2022-08-08T15:00:38.220Z,95565.47
2022-08-08T15:03:16.254Z,95558.97
2022-08-08T15:05:54.620Z,95562.91
2022-08-08T15:08:35.280Z,95566.13
2022-08-08T15:11:09.401Z,95562.53
2022-08-08T15:14:00.381Z,95566.88
2022-08-08T15:16:27.936Z,95567.63
2022-08-08T15:18:55.318Z,95565.66
2022-08-08T15:21:22.134Z,95568.75
2022-08-08T15:23:51.313Z,95570.72
2022-08-08T15:26:20.099Z,95570.13
2022-08-08T15:28:53.372Z,95562.59
2022-08-08T15:31:25.578Z,95566.31
2022-08-08T15:34:08.427Z,95558.84
2022-08-08T15:36:35.431Z,95563.53
2022-08-08T15:39:03.934Z,95570.69
2022-08-08T15:41:43.827Z,95565.41
2022-08-08T15:44:13.654Z,95564.22
2022-08-08T15:46:45.499Z,95568.16
2022-08-08T15:49:17.695Z,95565.78
2022-08-08T15:51:50.150Z,95559.91
2022-08-08T15:54:18.812Z,95557.88
2022-08-08T15:57:04.679Z,95559.63
2022-08-08T16:00:06.656Z,95551.41
2022-08-08T16:02:21.814Z,95551.19
2022-08-08T16:04:58.685Z,95558.19
2022-08-08T16:07:52.078Z,95553.75
2022-08-08T16:13:04.571Z,95548.69
2022-08-08T16:13:29.206Z,95550.41
2022-08-08T16:15:57.432Z,95549.72
2022-08-08T16:18:35.847Z,95556.28
2022-08-08T16:21:02.913Z,95551.03
2022-08-08T16:23:32.561Z,95552.66
2022-08-08T16:26:04.231Z,95556.00
2022-08-08T16:28:34.747Z,95556.25
2022-08-08T16:31:07.885Z,95552.06
2022-08-08T16:33:38.905Z,95554.00
2022-08-08T16:36:13.150Z,95559.28
2022-08-08T16:38:47.535Z,95563.50
2022-08-08T16:41:22.578Z,95562.59
2022-08-08T16:43:52.147Z,95561.47
2022-08-08T16:46:43.939Z,95555.44
2022-08-08T16:49:09.070Z,95567.19
2022-08-08T16:55:01.629Z,95552.63
2022-08-08T16:55:07.217Z,95555.59
2022-08-08T16:58:12.185Z,95563.88
2022-08-08T17:00:08.778Z,95559.88
2022-08-08T17:02:44.237Z,95575.06
2022-08-08T17:05:13.747Z,95567.06
2022-08-08T17:07:41.736Z,95567.50
2022-08-08T17:10:16.926Z,95574.34
2022-08-08T17:12:53.156Z,95577.16
2022-08-08T17:15:21.285Z,95577.53
2022-08-08T17:18:02.225Z,95581.19
2022-08-08T17:20:31.635Z,95580.56
2022-08-08T17:23:18.431Z,95583.97
2022-08-08T17:25:52.123Z,95582.44
2022-08-08T17:28:34.942Z,95587.00
2022-08-08T17:31:39.507Z,95589.38
2022-08-08T17:37:00.967Z,95595.00
2022-08-08T17:40:04.451Z,95597.44
2022-08-08T17:42:15.538Z,95599.63
2022-08-08T17:44:44.291Z,95612.44
2022-08-08T17:47:16.316Z,95606.59
2022-08-08T17:49:51.880Z,95618.03
2022-08-08T17:52:20.144Z,95614.94
2022-08-08T17:54:51.827Z,95621.50
2022-08-08T17:57:22.565Z,95626.19
2022-08-08T17:59:49.159Z,95632.09
2022-08-08T18:02:28.496Z,95629.72
2022-08-08T18:04:58.232Z,95632.34
2022-08-08T18:08:01.964Z,95634.03
2022-08-08T18:10:15.725Z,95636.72
2022-08-08T18:12:46.240Z,95635.53
2022-08-08T18:18:09.094Z,95629.66
2022-08-08T18:20:54.258Z,95640.38
2022-08-08T18:23:21.974Z,95637.97
2022-08-08T18:25:49.981Z,95637.78
2022-08-08T18:28:25.447Z,95644.06
2022-08-08T18:30:52.745Z,95638.78
2022-08-08T18:34:10.314Z,95641.19
2022-08-08T18:36:22.974Z,95641.50
2022-08-08T18:38:55.499Z,95650.09
2022-08-08T18:41:51.505Z,95650.97
2022-08-08T18:44:12.800Z,95654.44
2022-08-08T18:46:55.277Z,95656.56
2022-08-08T18:49:40.886Z,95659.56
2022-08-08T18:52:23.329Z,95655.91
2022-08-08T18:55:00.627Z,95665.69
2022-08-08T18:57:42.000Z,95665.81
2022-08-08T19:00:21.261Z,95666.84
2022-08-08T19:02:55.378Z,95674.38
2022-08-08T19:05:32.376Z,95678.13
2022-08-08T19:08:10.091Z,95671.75
2022-08-08T19:10:37.506Z,95674.63
2022-08-08T19:13:10.906Z,95682.59
2022-08-08T19:15:48.071Z,95676.72
2022-08-08T19:18:32.132Z,95677.56
2022-08-08T19:21:06.075Z,95693.59
2022-08-08T19:23:52.975Z,95692.28
2022-08-08T19:26:30.265Z,95694.66
2022-08-08T19:29:00.552Z,95698.03
2022-08-08T19:31:31.317Z,95700.41
2022-08-08T19:34:04.999Z,95701.75
2022-08-08T19:36:51.965Z,95705.44
2022-08-08T19:39:19.619Z,95712.91
2022-08-08T19:41:49.897Z,95705.44
2022-08-08T19:44:43.041Z,95703.81
2022-08-08T19:47:04.428Z,95713.63
2022-08-08T19:49:37.685Z,95704.50
2022-08-08T19:52:06.599Z,95708.13
2022-08-08T19:54:33.766Z,95706.22
2022-08-08T19:57:04.189Z,95709.47
2022-08-08T19:59:34.796Z,95709.34
2022-08-08T20:02:04.437Z,95708.91
2022-08-08T20:04:35.213Z,95709.00
2022-08-08T20:08:27.201Z,95699.38
2022-08-08T20:09:56.326Z,95709.81
2022-08-08T20:12:32.599Z,95704.31
2022-08-08T20:15:14.612Z,95705.00
2022-08-08T20:17:46.212Z,95700.78
2022-08-08T20:20:16.048Z,95698.22
2022-08-08T20:22:52.610Z,95704.38
2022-08-08T20:25:21.332Z,95711.03
2022-08-08T20:27:50.158Z,95714.31
2022-08-08T20:30:53.145Z,95713.88
2022-08-08T20:33:20.193Z,95719.13
2022-08-08T20:35:56.821Z,95706.25
2022-08-08T20:38:31.923Z,95716.91
2022-08-08T20:41:00.852Z,95711.88
2022-08-08T20:43:43.616Z,95715.13
2022-08-08T20:46:14.824Z,95719.22
2022-08-08T20:48:41.513Z,95711.25
2022-08-08T20:51:08.218Z,95709.50
2022-08-08T20:53:59.113Z,95717.50
2022-08-08T20:56:35.823Z,95714.06
2022-08-08T20:59:10.160Z,95716.25
2022-08-08T21:02:06.526Z,95717.41
2022-08-08T21:04:27.357Z,95716.13
2022-08-08T21:06:55.047Z,95718.75
2022-08-08T21:09:21.965Z,95714.69
2022-08-08T21:11:51.762Z,95711.91
2022-08-08T21:14:33.568Z,95712.91
2022-08-08T21:17:05.990Z,95717.13
2022-08-08T21:19:45.419Z,95714.84
2022-08-08T21:22:13.672Z,95715.69
2022-08-08T21:24:41.801Z,95719.41
2022-08-08T21:28:06.723Z,95725.75
2022-08-08T21:30:10.831Z,95719.75
2022-08-08T21:32:45.815Z,95726.09
2022-08-08T21:36:14.646Z,95722.69
2022-08-08T21:38:08.398Z,95717.59
2022-08-08T21:40:38.715Z,95718.78
2022-08-08T21:43:21.993Z,95722.19
2022-08-08T21:48:04.260Z,95715.69
2022-08-08T21:48:44.445Z,95713.25
2022-08-08T21:51:11.868Z,95717.28
2022-08-08T21:54:31.836Z,95708.19
2022-08-08T21:56:32.280Z,95707.06
2022-08-08T21:59:05.737Z,95709.66
2022-08-08T22:01:40.839Z,95715.69
2022-08-08T22:04:10.521Z,95710.63
2022-08-08T22:06:40.279Z,95714.88
2022-08-08T22:09:09.782Z,95712.25
2022-08-08T22:11:59.291Z,95706.75
2022-08-08T22:14:26.979Z,95708.03
2022-08-08T22:16:56.192Z,95701.53
2022-08-08T22:19:24.145Z,95705.44
2022-08-08T22:21:52.932Z,95705.75
2022-08-08T22:24:28.393Z,95706.38
2022-08-08T22:27:01.193Z,95705.25
2022-08-08T22:29:57.866Z,95708.00
2022-08-08T22:32:18.076Z,95709.78
2022-08-08T22:34:50.577Z,95706.19
2022-08-08T22:37:48.715Z,95704.75
2022-08-08T22:40:07.496Z,95708.00
2022-08-08T22:42:38.973Z,95704.41
2022-08-08T22:45:12.433Z,95703.75
2022-08-08T22:47:41.357Z,95708.59
2022-08-08T22:50:26.151Z,95706.34
2022-08-08T22:54:31.666Z,95714.28
2022-08-08T22:55:57.640Z,95709.38
2022-08-08T22:58:27.101Z,95707.22
2022-08-08T23:00:55.343Z,95706.00
2022-08-08T23:03:22.049Z,95703.38
2022-08-08T23:05:49.796Z,95702.91
2022-08-08T23:08:18.067Z,95700.94
2022-08-08T23:10:52.991Z,95698.03
2022-08-08T23:13:22.475Z,95696.56
2022-08-08T23:16:41.906Z,95705.19
2022-08-08T23:18:40.346Z,95703.38
2022-08-08T23:21:07.785Z,95704.69
2022-08-08T23:23:48.845Z,95699.50
2022-08-08T23:26:21.822Z,95701.03
2022-08-08T23:28:48.525Z,95699.56
2022-08-08T23:31:15.173Z,95706.63
2022-08-08T23:34:18.502Z,95702.56
2022-08-08T23:36:29.269Z,95699.56
2022-08-08T23:38:55.893Z,95697.97
2022-08-08T23:41:25.045Z,95691.78
2022-08-08T23:43:54.091Z,95690.81
2022-08-08T23:49:06.770Z,95695.44
2022-08-08T23:49:15.657Z,95694.66
2022-08-08T23:52:04.446Z,95692.84
2022-08-08T23:54:41.306Z,95686.38
2022-08-08T23:57:25.595Z,95685.59
